Time;durP1;ratioP1;P1;durP2;ratioP2;P2;SDS_P1;SDS_P2;PMS_P1;PMS_P2;Temp;Humidity;BMP_temperature;BMP_pressure;BME280_temperature;BME280_humidity;BME280_pressure;Samples;Min_cycle;Max_cycle;Signal;HPM_P1;HPM_P2
2023/08/20 00:00:36;;;;;;;2.88;1.95;;;21.90;99.90;;;;;;4160758;28;20488;-65
2023/08/20 00:02:40;;;;;;;2.63;2.00;;;21.90;99.90;;;;;;4158027;28;20095;-65
2023/08/20 00:04:44;;;;;;;4.32;1.88;;;21.90;99.90;;;;;;4154765;28;20064;-65
2023/08/20 00:06:46;;;;;;;4.65;1.75;;;21.90;99.90;;;;;;4156333;28;20041;-65
2023/08/20 00:08:47;;;;;;;3.80;1.90;;;21.90;99.90;;;;;;4163500;28;20064;-65
2023/08/20 00:10:47;;;;;;;5.13;1.58;;;21.90;99.90;;;;;;4163500;28;20025;-65
2023/08/20 00:12:48;;;;;;;4.30;1.98;;;21.90;99.90;;;;;;4157695;28;20030;-65
2023/08/20 00:15:06;;;;;;;1.98;1.70;;;21.90;99.90;;;;;;4163847;28;20048;-65
2023/08/20 00:17:07;;;;;;;1.83;1.55;;;21.80;99.90;;;;;;4161557;28;20033;-65
2023/08/20 00:19:08;;;;;;;4.85;1.70;;;21.80;99.90;;;;;;4163005;28;20040;-65
2023/08/20 00:21:09;;;;;;;2.78;1.95;;;21.80;99.90;;;;;;4163019;28;20044;-65
2023/08/20 00:23:10;;;;;;;2.45;1.70;;;21.80;99.90;;;;;;4163832;28;20033;-65
2023/08/20 00:25:15;;;;;;;2.20;1.58;;;21.70;99.90;;;;;;4163200;28;20037;-66
2023/08/20 00:27:15;;;;;;;1.85;1.55;;;21.70;99.90;;;;;;4161333;28;20026;-65
2023/08/20 00:29:16;;;;;;;3.42;2.10;;;21.70;99.90;;;;;;4154541;28;20033;-78
2023/08/20 00:31:17;;;;;;;3.50;1.90;;;21.70;99.90;;;;;;4151967;28;20107;-78
2023/08/20 00:33:17;;;;;;;4.63;2.30;;;21.70;99.90;;;;;;4151320;28;20033;-78
2023/08/20 00:35:18;;;;;;;2.95;1.88;;;21.70;99.90;;;;;;4156586;28;20033;-77
2023/08/20 00:37:18;;;;;;;2.72;1.92;;;21.60;99.90;;;;;;4161331;28;20033;-78
2023/08/20 00:39:19;;;;;;;4.15;1.73;;;21.60;99.90;;;;;;4165752;28;20112;-78
2023/08/20 00:41:19;;;;;;;2.50;1.95;;;21.60;99.90;;;;;;4146760;28;20266;-77
2023/08/20 00:43:20;;;;;;;3.25;1.90;;;21.60;99.90;;;;;;4162433;28;20397;-78
2023/08/20 00:45:21;;;;;;;2.60;1.73;;;21.60;99.90;;;;;;4159697;28;20056;-78
2023/08/20 00:47:22;;;;;;;3.35;1.80;;;21.60;99.90;;;;;;4161570;28;20072;-76
2023/08/20 00:49:23;;;;;;;2.88;1.73;;;21.60;99.90;;;;;;4153198;28;20030;-76
2023/08/20 00:51:24;;;;;;;3.15;2.03;;;21.50;99.90;;;;;;4160601;28;20091;-77
2023/08/20 00:53:25;;;;;;;2.97;2.08;;;21.50;99.90;;;;;;4155089;28;20036;-77
2023/08/20 00:55:26;;;;;;;4.25;2.38;;;21.50;99.90;;;;;;4159513;28;20409;-76
2023/08/20 00:57:27;;;;;;;4.10;2.25;;;21.50;99.90;;;;;;4161887;28;20037;-78
2023/08/20 00:59:30;;;;;;;3.25;1.98;;;21.50;99.90;;;;;;4161447;28;20520;-77
2023/08/20 01:01:30;;;;;;;3.55;1.73;;;21.50;99.90;;;;;;4153172;28;20056;-77
2023/08/20 01:03:31;;;;;;;4.03;1.73;;;21.50;99.90;;;;;;4153293;28;20049;-76
2023/08/20 01:05:37;;;;;;;3.35;2.03;;;21.50;99.90;;;;;;4157702;28;20036;-64
2023/08/20 01:07:54;;;;;;;4.03;2.10;;;21.50;99.90;;;;;;4156483;28;20149;-63
2023/08/20 01:10:10;;;;;;;2.30;1.63;;;21.40;99.90;;;;;;4157402;28;20042;-64
2023/08/20 01:12:13;;;;;;;2.30;2.08;;;21.40;99.90;;;;;;4160807;28;20042;-63
2023/08/20 01:14:15;;;;;;;4.03;2.50;;;21.40;99.90;;;;;;4163155;28;20021;-63
2023/08/20 01:16:16;;;;;;;5.47;2.70;;;21.40;99.90;;;;;;4158422;28;20080;-64
2023/08/20 01:18:16;;;;;;;3.80;2.60;;;21.40;99.90;;;;;;4156497;28;20073;-63
2023/08/20 01:20:18;;;;;;;4.05;2.25;;;21.40;99.90;;;;;;4156889;28;20036;-63
2023/08/20 01:22:52;;;;;;;3.27;2.27;;;21.30;99.90;;;;;;4155903;28;20036;-63
2023/08/20 01:25:01;;;;;;;3.85;2.40;;;21.30;99.90;;;;;;4189885;28;20302;-63
2023/08/20 01:27:26;;;;;;;2.08;1.52;;;21.30;99.90;;;;;;4161123;28;20029;-63
2023/08/20 01:29:28;;;;;;;2.08;1.58;;;21.30;99.90;;;;;;4162289;28;20366;-63
2023/08/20 01:31:28;;;;;;;2.53;1.88;;;21.30;99.90;;;;;;4158952;28;20056;-63
2023/08/20 01:33:30;;;;;;;2.35;1.80;;;21.20;99.90;;;;;;4161400;28;20038;-63
2023/08/20 01:35:30;;;;;;;3.95;1.80;;;21.20;99.90;;;;;;4158043;28;20664;-63
2023/08/20 01:37:31;;;;;;;3.88;1.80;;;21.20;99.90;;;;;;4153194;28;20026;-65
2023/08/20 01:39:32;;;;;;;2.40;1.50;;;21.20;99.90;;;;;;4162270;28;20442;-65
2023/08/20 01:41:32;;;;;;;4.82;1.98;;;21.20;99.90;;;;;;4154243;28;20080;-63
2023/08/20 01:43:34;;;;;;;4.35;2.00;;;21.20;99.90;;;;;;4162318;28;20025;-64
2023/08/20 01:45:34;;;;;;;3.85;1.92;;;21.10;99.90;;;;;;4153472;28;20048;-64
2023/08/20 01:47:35;;;;;;;4.45;2.20;;;21.20;99.90;;;;;;4158683;28;20562;-63
2023/08/20 01:49:36;;;;;;;4.10;1.90;;;21.10;99.90;;;;;;4160879;28;20064;-63
2023/08/20 01:51:36;;;;;;;3.25;1.85;;;21.10;99.90;;;;;;4158280;28;20037;-63
2023/08/20 01:53:37;;;;;;;3.88;1.90;;;21.10;99.90;;;;;;4157723;28;20077;-63
2023/08/20 01:55:38;;;;;;;3.72;1.83;;;21.10;99.90;;;;;;4156878;28;20038;-63
2023/08/20 01:57:38;;;;;;;4.53;1.98;;;21.10;99.90;;;;;;4159817;28;20071;-63
2023/08/20 01:59:39;;;;;;;3.35;1.83;;;21.10;99.90;;;;;;4160585;28;20091;-63
2023/08/20 02:01:39;;;;;;;2.88;2.22;;;21.10;99.90;;;;;;4161022;28;20045;-63
2023/08/20 02:03:40;;;;;;;4.57;2.67;;;21.00;99.90;;;;;;4157722;28;20056;-63
2023/08/20 02:05:41;;;;;;;4.45;2.55;;;21.00;99.90;;;;;;4154501;28;20033;-63
2023/08/20 02:07:41;;;;;;;4.18;3.10;;;21.00;99.90;;;;;;4158966;28;20041;-63
2023/08/20 02:09:45;;;;;;;3.00;2.33;;;21.00;99.90;;;;;;4161573;28;20124;-72
2023/08/20 02:11:46;;;;;;;4.28;2.92;;;21.00;99.90;;;;;;4158479;28;20397;-63
2023/08/20 02:13:46;;;;;;;4.18;2.88;;;21.00;99.90;;;;;;4161857;28;20033;-63
2023/08/20 02:15:56;;;;;;;4.68;3.03;;;21.00;99.90;;;;;;4156493;28;20057;-63
2023/08/20 02:17:57;;;;;;;5.03;2.90;;;21.00;99.90;;;;;;4160414;28;20029;-63
2023/08/20 02:19:57;;;;;;;4.75;2.83;;;21.00;99.90;;;;;;4158159;28;20469;-63
2023/08/20 02:21:58;;;;;;;4.18;2.97;;;21.00;99.90;;;;;;4155283;28;20025;-63
2023/08/20 02:23:59;;;;;;;4.88;3.13;;;21.00;99.90;;;;;;4160719;28;20116;-63
2023/08/20 02:26:00;;;;;;;4.57;3.13;;;21.00;99.90;;;;;;4160649;28;20440;-63
2023/08/20 02:28:01;;;;;;;4.32;3.17;;;21.10;99.90;;;;;;4161460;28;20021;-63
2023/08/20 02:30:02;;;;;;;6.75;3.55;;;21.00;99.90;;;;;;4161827;28;20485;-63
2023/08/20 02:32:02;;;;;;;3.42;2.85;;;21.00;99.90;;;;;;4161036;28;20037;-64
2023/08/20 02:34:03;;;;;;;6.03;3.97;;;21.10;99.90;;;;;;4155205;28;20022;-64
2023/08/20 02:36:04;;;;;;;4.38;3.47;;;21.10;99.90;;;;;;4150283;28;20478;-63
2023/08/20 02:38:05;;;;;;;5.57;3.75;;;21.10;99.90;;;;;;4160685;28;20076;-63
2023/08/20 02:40:08;;;;;;;5.35;3.72;;;21.10;99.90;;;;;;4158956;28;20048;-64
2023/08/20 02:42:08;;;;;;;5.72;3.95;;;21.10;99.90;;;;;;4158709;28;20026;-63
2023/08/20 02:44:09;;;;;;;5.88;4.30;;;21.10;99.90;;;;;;4153321;28;20048;-63
2023/08/20 02:46:09;;;;;;;8.15;4.70;;;21.10;99.90;;;;;;4166138;28;20033;-63
2023/08/20 02:48:11;;;;;;;6.93;4.43;;;21.10;99.90;;;;;;4163739;28;20075;-63
2023/08/20 02:50:11;;;;;;;13.40;5.90;;;21.00;99.90;;;;;;4159412;28;20466;-64
2023/08/20 02:52:12;;;;;;;12.30;6.32;;;21.00;99.90;;;;;;4159479;28;20048;-63
2023/08/20 02:54:13;;;;;;;8.73;5.28;;;21.00;99.90;;;;;;4158867;28;20029;-63
2023/08/20 02:56:13;;;;;;;9.35;5.65;;;20.90;99.90;;;;;;4188179;28;20107;-63
2023/08/20 02:58:14;;;;;;;8.20;5.93;;;20.90;99.90;;;;;;4158487;28;20037;-63
2023/08/20 03:00:15;;;;;;;10.80;7.22;;;20.80;99.90;;;;;;4156938;28;20044;-64
2023/08/20 03:02:16;;;;;;;9.38;5.85;;;20.80;99.90;;;;;;4157673;28;20568;-63
2023/08/20 03:04:16;;;;;;;10.57;6.65;;;20.80;99.90;;;;;;4158552;28;20046;-63
2023/08/20 03:06:17;;;;;;;9.50;6.28;;;20.80;99.90;;;;;;4153462;28;20041;-64
2023/08/20 03:08:18;;;;;;;8.35;4.90;;;20.80;99.90;;;;;;4171103;28;20048;-64
2023/08/20 03:10:18;;;;;;;8.20;6.07;;;20.70;99.90;;;;;;4155118;28;20037;-63
2023/08/20 03:12:19;;;;;;;6.88;4.97;;;20.80;99.90;;;;;;4159174;28;20036;-63
2023/08/20 03:14:19;;;;;;;6.47;5.15;;;20.70;99.90;;;;;;4158195;28;20033;-63
2023/08/20 03:16:20;;;;;;;6.65;3.95;;;20.80;99.90;;;;;;4155524;28;20064;-63
2023/08/20 03:18:21;;;;;;;7.30;4.43;;;20.70;99.90;;;;;;4158885;28;20053;-63
2023/08/20 03:20:21;;;;;;;7.95;4.22;;;20.80;99.90;;;;;;4157764;28;20033;-63
2023/08/20 03:22:24;;;;;;;8.48;4.53;;;20.80;99.90;;;;;;4190552;28;20032;-66
2023/08/20 03:24:24;;;;;;;7.45;4.95;;;20.80;99.90;;;;;;4158843;28;20025;-63
2023/08/20 03:26:25;;;;;;;8.45;5.43;;;20.80;99.90;;;;;;4157150;28;20088;-63
2023/08/20 03:28:25;;;;;;;7.88;5.45;;;20.80;99.90;;;;;;4158310;28;20112;-64
2023/08/20 03:30:27;;;;;;;8.55;5.05;;;20.80;99.90;;;;;;4173227;28;20091;-68
2023/08/20 03:32:28;;;;;;;6.63;4.80;;;20.80;99.90;;;;;;4155078;28;20034;-68
2023/08/20 03:34:28;;;;;;;8.43;5.18;;;20.80;99.90;;;;;;4158092;28;20033;-68
2023/08/20 03:36:29;;;;;;;7.63;5.32;;;20.80;99.90;;;;;;4159676;28;20485;-68
2023/08/20 03:38:29;;;;;;;8.68;5.43;;;20.80;99.90;;;;;;4160909;28;20133;-66
2023/08/20 03:40:30;;;;;;;5.55;4.22;;;20.70;99.90;;;;;;4185368;28;20036;-67
2023/08/20 03:42:31;;;;;;;5.72;4.18;;;20.70;99.90;;;;;;4161323;28;20038;-67
2023/08/20 03:44:31;;;;;;;6.82;4.35;;;20.70;99.90;;;;;;4160438;28;20037;-67
2023/08/20 03:46:32;;;;;;;11.15;5.43;;;20.70;99.90;;;;;;4161268;28;20037;-67
2023/08/20 03:48:32;;;;;;;6.75;4.78;;;20.70;99.90;;;;;;4162051;28;20570;-66
2023/08/20 03:50:33;;;;;;;9.23;5.20;;;20.70;99.90;;;;;;4159952;28;20116;-67
2023/08/20 03:52:34;;;;;;;8.55;3.85;;;20.70;99.90;;;;;;4162076;28;20033;-67
2023/08/20 03:54:34;;;;;;;5.85;4.10;;;20.70;99.90;;;;;;4158316;28;20508;-67
2023/08/20 03:56:36;;;;;;;5.80;4.50;;;20.70;99.90;;;;;;4155546;28;20045;-67
2023/08/20 03:58:36;;;;;;;5.05;4.18;;;20.70;99.90;;;;;;4162000;28;20179;-67
2023/08/20 04:00:37;;;;;;;5.45;3.80;;;20.70;99.90;;;;;;4160078;28;20099;-67
2023/08/20 04:02:38;;;;;;;5.93;4.00;;;20.70;99.90;;;;;;4174083;28;20044;-67
2023/08/20 04:04:39;;;;;;;9.02;4.35;;;20.70;99.90;;;;;;4159210;28;20037;-66
2023/08/20 04:06:39;;;;;;;6.45;4.10;;;20.70;99.90;;;;;;4158653;28;20041;-67
2023/08/20 04:08:40;;;;;;;6.93;4.28;;;20.70;99.90;;;;;;4159515;28;20117;-67
2023/08/20 04:10:45;;;;;;;7.18;4.13;;;20.70;99.90;;;;;;4162434;28;20045;-67
2023/08/20 04:12:46;;;;;;;5.03;4.05;;;20.70;99.90;;;;;;4156137;28;20049;-67
2023/08/20 04:14:46;;;;;;;5.82;4.32;;;20.70;99.90;;;;;;4149705;28;20034;-67
2023/08/20 04:16:47;;;;;;;7.03;4.00;;;20.80;99.90;;;;;;4158968;28;20543;-67
2023/08/20 04:18:48;;;;;;;13.30;4.45;;;20.80;99.90;;;;;;4174253;28;20037;-67
2023/08/20 04:20:52;;;;;;;6.28;4.05;;;20.80;99.90;;;;;;4148382;28;20417;-67
2023/08/20 04:22:53;;;;;;;5.05;3.95;;;20.70;99.90;;;;;;4158142;28;20397;-67
2023/08/20 04:24:53;;;;;;;5.20;3.67;;;20.70;99.90;;;;;;4161505;28;20065;-67
2023/08/20 04:26:54;;;;;;;6.72;4.32;;;20.70;99.90;;;;;;4161244;28;20377;-67
2023/08/20 04:28:54;;;;;;;6.43;4.00;;;20.70;99.90;;;;;;4162201;28;20029;-67
2023/08/20 04:30:56;;;;;;;4.28;3.55;;;20.70;99.90;;;;;;4161077;28;20026;-67
2023/08/20 04:32:56;;;;;;;5.00;3.58;;;20.70;99.90;;;;;;4161032;28;20040;-67
2023/08/20 04:34:57;;;;;;;4.55;3.83;;;20.70;99.90;;;;;;4160266;28;20101;-67
2023/08/20 04:36:58;;;;;;;4.50;3.25;;;20.70;99.90;;;;;;4176312;28;20367;-67
2023/08/20 04:38:59;;;;;;;7.07;3.38;;;20.70;99.90;;;;;;4161091;28;20071;-67
2023/08/20 04:40:59;;;;;;;4.13;3.50;;;20.70;99.90;;;;;;4158495;28;20033;-67
2023/08/20 04:43:00;;;;;;;6.43;3.67;;;20.70;99.90;;;;;;4162692;28;20028;-67
2023/08/20 04:45:00;;;;;;;5.32;3.70;;;20.70;99.90;;;;;;4165005;28;20049;-67
2023/08/20 04:47:01;;;;;;;3.63;2.97;;;20.70;99.90;;;;;;4159361;28;20367;-67
2023/08/20 04:49:02;;;;;;;3.33;2.95;;;20.70;99.90;;;;;;4149695;28;20113;-67
2023/08/20 04:51:03;;;;;;;7.40;3.78;;;20.70;99.90;;;;;;4161426;28;20041;-67
2023/08/20 04:53:04;;;;;;;5.57;3.90;;;20.70;99.90;;;;;;4161576;28;20509;-67
2023/08/20 04:55:06;;;;;;;5.25;3.50;;;20.70;99.90;;;;;;4156929;28;20042;-67
2023/08/20 04:57:07;;;;;;;4.97;3.40;;;20.70;99.90;;;;;;4160077;28;20037;-67
2023/08/20 04:59:07;;;;;;;5.00;3.70;;;20.70;99.90;;;;;;4159913;28;20129;-67
2023/08/20 05:01:08;;;;;;;5.47;4.10;;;20.60;99.90;;;;;;4150548;28;20068;-66
2023/08/20 05:03:09;;;;;;;4.90;3.70;;;20.70;99.90;;;;;;4114424;28;1093828;-67
2023/08/20 05:05:11;;;;;;;5.63;4.05;;;20.70;99.90;;;;;;4161687;28;20033;-67
2023/08/20 05:07:12;;;;;;;6.07;3.85;;;20.60;99.90;;;;;;4160814;28;20037;-67
2023/08/20 05:09:12;;;;;;;4.90;3.85;;;20.60;99.90;;;;;;4162923;28;20087;-67
2023/08/20 05:11:13;;;;;;;5.18;3.45;;;20.50;99.90;;;;;;4159940;28;20029;-67
2023/08/20 05:13:13;;;;;;;5.13;3.25;;;20.50;99.90;;;;;;4160754;28;22070;-67
2023/08/20 05:15:14;;;;;;;5.25;3.20;;;20.50;99.90;;;;;;4159932;28;20041;-67
2023/08/20 05:17:15;;;;;;;4.03;3.05;;;20.60;99.90;;;;;;4162179;28;20112;-67
2023/08/20 05:19:15;;;;;;;4.40;3.05;;;20.60;99.90;;;;;;4162262;28;20033;-67
2023/08/20 05:21:16;;;;;;;3.13;2.75;;;20.60;99.90;;;;;;4159896;28;20104;-67
2023/08/20 05:23:16;;;;;;;4.72;3.00;;;20.60;99.90;;;;;;4161619;28;20102;-67
2023/08/20 05:25:17;;;;;;;5.78;3.72;;;20.70;99.90;;;;;;4160481;28;20047;-67
2023/08/20 05:27:17;;;;;;;3.85;3.25;;;20.70;99.90;;;;;;4158905;28;20551;-67
2023/08/20 05:29:18;;;;;;;4.47;3.30;;;20.70;99.90;;;;;;4155099;28;20534;-67
2023/08/20 05:31:19;;;;;;;5.03;3.55;;;20.70;99.90;;;;;;4165543;28;20107;-67
2023/08/20 05:33:19;;;;;;;4.43;3.60;;;20.70;99.90;;;;;;4159136;28;20026;-67
2023/08/20 05:35:20;;;;;;;4.45;3.42;;;20.80;99.90;;;;;;4161524;28;20025;-67
2023/08/20 05:37:20;;;;;;;6.85;4.10;;;20.80;99.90;;;;;;4157533;28;20029;-67
2023/08/20 05:39:22;;;;;;;5.93;4.07;;;20.80;99.90;;;;;;4158903;28;20485;-67
2023/08/20 05:41:23;;;;;;;4.85;3.97;;;20.80;99.90;;;;;;4154119;28;20519;-67
2023/08/20 05:43:24;;;;;;;5.72;4.05;;;20.90;99.90;;;;;;4163678;28;22577;-67
2023/08/20 05:45:24;;;;;;;6.40;4.00;;;20.90;99.90;;;;;;4160950;28;20053;-67
2023/08/20 05:47:25;;;;;;;9.35;4.50;;;21.00;99.90;;;;;;4160140;28;20077;-67
2023/08/20 05:49:25;;;;;;;5.65;4.13;;;21.00;99.90;;;;;;4161593;28;20040;-67
2023/08/20 05:51:26;;;;;;;5.70;4.47;;;21.00;99.90;;;;;;4161848;28;20045;-68
2023/08/20 05:53:26;;;;;;;5.60;3.75;;;21.10;99.90;;;;;;4159033;28;20037;-67
2023/08/20 05:55:27;;;;;;;5.15;3.72;;;21.10;99.90;;;;;;4160653;28;20080;-67
2023/08/20 05:57:28;;;;;;;4.45;3.78;;;21.10;99.90;;;;;;4154723;28;20056;-67
2023/08/20 05:59:28;;;;;;;6.03;3.92;;;21.10;99.90;;;;;;4175303;28;20044;-67
2023/08/20 06:01:29;;;;;;;7.05;4.43;;;21.20;99.90;;;;;;4156872;28;20493;-67
2023/08/20 06:03:30;;;;;;;5.85;3.97;;;21.20;99.90;;;;;;4156197;28;20060;-67
2023/08/20 06:05:31;;;;;;;6.78;4.45;;;21.30;99.90;;;;;;4156693;28;20046;-67
2023/08/20 06:07:31;;;;;;;5.40;3.47;;;21.30;99.90;;;;;;4164117;28;20029;-67
2023/08/20 06:09:32;;;;;;;4.80;4.07;;;21.40;99.90;;;;;;4156092;28;20034;-67
2023/08/20 06:11:32;;;;;;;4.70;3.95;;;21.40;99.90;;;;;;4177591;28;20033;-65
2023/08/20 06:13:33;;;;;;;4.97;3.60;;;21.50;99.90;;;;;;4159201;28;20053;-66
2023/08/20 06:15:33;;;;;;;6.40;4.47;;;21.50;99.90;;;;;;4159702;28;20021;-66
2023/08/20 06:17:34;;;;;;;6.07;4.15;;;21.50;99.90;;;;;;4159739;28;20042;-66
2023/08/20 06:19:35;;;;;;;6.07;4.22;;;21.60;99.90;;;;;;4158697;28;20096;-69
2023/08/20 06:21:35;;;;;;;7.25;4.28;;;21.60;99.90;;;;;;4156438;28;20092;-66
2023/08/20 06:23:36;;;;;;;5.43;4.10;;;21.70;99.90;;;;;;4150803;28;20060;-66
2023/08/20 06:25:36;;;;;;;7.00;4.50;;;21.70;99.90;;;;;;4160552;28;20037;-66
2023/08/20 06:27:37;;;;;;;4.55;4.00;;;21.80;99.90;;;;;;4161884;28;20397;-66
2023/08/20 06:29:38;;;;;;;9.45;4.82;;;21.80;99.90;;;;;;4159714;28;20045;-66
2023/08/20 06:31:39;;;;;;;5.78;4.53;;;21.90;99.90;;;;;;4158334;28;20121;-66
2023/08/20 06:33:39;;;;;;;6.93;5.15;;;21.90;99.90;;;;;;4161240;28;20033;-66
2023/08/20 06:35:41;;;;;;;6.30;4.47;;;22.00;99.90;;;;;;4159104;28;20041;-66
2023/08/20 06:37:42;;;;;;;5.53;4.68;;;22.00;99.90;;;;;;4159389;28;20104;-66
2023/08/20 06:39:42;;;;;;;9.27;5.88;;;22.10;99.90;;;;;;4160228;28;20048;-66
2023/08/20 06:41:43;;;;;;;8.02;5.57;;;22.10;99.90;;;;;;4159911;28;20504;-66
2023/08/20 06:43:43;;;;;;;7.80;6.05;;;22.20;99.90;;;;;;4158244;28;20095;-66
2023/08/20 06:45:44;;;;;;;7.95;5.50;;;22.30;99.90;;;;;;4160292;28;20508;-66
2023/08/20 06:47:45;;;;;;;7.50;4.82;;;22.40;99.90;;;;;;4160661;28;20404;-65
2023/08/20 06:49:45;;;;;;;7.65;5.05;;;22.60;99.90;;;;;;4160163;28;20045;-66
2023/08/20 06:51:46;;;;;;;7.50;5.45;;;22.80;99.90;;;;;;4160223;28;20493;-66
2023/08/20 06:53:47;;;;;;;8.10;5.30;;;23.00;99.90;;;;;;4158779;28;20061;-66
2023/08/20 06:55:47;;;;;;;7.65;5.65;;;23.30;99.90;;;;;;4158922;28;20065;-66
2023/08/20 06:57:48;;;;;;;7.43;5.28;;;23.60;99.90;;;;;;4160347;28;20033;-66
2023/08/20 06:59:48;;;;;;;7.68;4.97;;;23.90;99.90;;;;;;4172223;28;20138;-66
2023/08/20 07:01:49;;;;;;;6.55;5.00;;;24.20;99.90;;;;;;4156282;28;20070;-66
2023/08/20 07:03:49;;;;;;;8.20;5.82;;;24.50;99.90;;;;;;4151989;28;20045;-66
2023/08/20 07:05:50;;;;;;;7.30;5.75;;;24.90;99.90;;;;;;4155759;28;20029;-66
2023/08/20 07:07:51;;;;;;;6.85;4.97;;;25.20;99.90;;;;;;4161865;28;20030;-66
2023/08/20 07:09:51;;;;;;;6.95;5.18;;;25.50;99.90;;;;;;4161086;28;20029;-66
2023/08/20 07:11:52;;;;;;;8.13;5.50;;;25.70;99.90;;;;;;4158239;28;20033;-67
2023/08/20 07:13:52;;;;;;;7.50;5.45;;;26.00;99.90;;;;;;4118460;28;20056;-67
2023/08/20 07:15:53;;;;;;;7.53;5.60;;;26.30;99.90;;;;;;4094245;28;20037;-67
2023/08/20 07:17:54;;;;;;;8.80;5.93;;;26.50;99.90;;;;;;4097712;28;20044;-66
2023/08/20 07:19:55;;;;;;;8.00;6.00;;;26.70;99.90;;;;;;4181643;28;20037;-66
2023/08/20 07:21:55;;;;;;;8.25;5.82;;;26.80;99.90;;;;;;4193271;28;20138;-66
2023/08/20 07:23:56;;;;;;;9.43;5.32;;;27.00;99.90;;;;;;4162724;28;20379;-66
2023/08/20 07:26:07;;;;;;;8.75;5.40;;;27.10;99.90;;;;;;4161999;28;20036;-67
2023/08/20 07:28:09;;;;;;;8.77;6.05;;;27.30;99.90;;;;;;4161844;28;20600;-67
2023/08/20 07:30:10;;;;;;;8.55;6.00;;;27.40;99.90;;;;;;4161431;28;20048;-68
2023/08/20 07:32:11;;;;;;;11.95;7.93;;;27.40;99.90;;;;;;4162103;28;20059;-67
2023/08/20 07:34:12;;;;;;;13.40;7.80;;;27.40;99.90;;;;;;4161976;28;20025;-67
2023/08/20 07:36:13;;;;;;;7.97;5.72;;;27.40;99.90;;;;;;4161679;28;20283;-66
2023/08/20 07:38:14;;;;;;;10.30;6.18;;;27.40;99.90;;;;;;4162571;28;20426;-69
2023/08/20 07:40:14;;;;;;;11.65;6.82;;;27.50;99.90;;;;;;4169877;28;20022;-66
2023/08/20 07:42:15;;;;;;;8.80;6.05;;;27.50;99.90;;;;;;4160739;28;20030;-66
2023/08/20 07:44:15;;;;;;;8.13;5.20;;;27.60;99.90;;;;;;4161884;28;20033;-67
2023/08/20 07:46:16;;;;;;;8.20;5.22;;;27.60;99.90;;;;;;4156111;28;20030;-66
2023/08/20 07:48:17;;;;;;;7.43;5.20;;;27.60;99.90;;;;;;4153291;28;20036;-66
2023/08/20 07:50:17;;;;;;;9.68;5.85;;;27.60;99.90;;;;;;4150795;28;20033;-66
2023/08/20 07:52:18;;;;;;;9.63;5.75;;;27.70;99.90;;;;;;4160080;28;20064;-68
2023/08/20 07:54:18;;;;;;;9.82;5.75;;;27.70;99.90;;;;;;4159490;28;20511;-67
2023/08/20 07:56:19;;;;;;;6.40;4.90;;;27.70;99.90;;;;;;4155306;28;20033;-67
2023/08/20 07:58:20;;;;;;;11.88;5.15;;;27.70;99.90;;;;;;4149501;28;20033;-67
2023/08/20 08:00:20;;;;;;;6.32;4.82;;;27.80;99.90;;;;;;4156897;28;20370;-66
2023/08/20 08:02:21;;;;;;;9.23;5.35;;;27.80;99.90;;;;;;4158205;28;20061;-67
2023/08/20 08:04:22;;;;;;;6.75;4.68;;;27.80;99.90;;;;;;4160049;28;20025;-66
2023/08/20 08:06:23;;;;;;;9.13;5.93;;;27.80;99.90;;;;;;4158014;28;20497;-67
2023/08/20 08:08:24;;;;;;;7.53;5.40;;;27.80;99.90;;;;;;4156908;28;20041;-66
2023/08/20 08:10:25;;;;;;;9.73;5.38;;;27.90;99.90;;;;;;4165402;28;20091;-67
2023/08/20 08:12:25;;;;;;;13.15;6.53;;;27.90;99.90;;;;;;4153858;28;20502;-66
2023/08/20 08:14:26;;;;;;;7.90;5.25;;;27.90;99.90;;;;;;4158707;28;20106;-67
2023/08/20 08:16:27;;;;;;;7.95;4.75;;;28.00;99.90;;;;;;4151384;28;20485;-66
2023/08/20 08:18:27;;;;;;;9.55;5.35;;;28.00;99.90;;;;;;4157231;28;20037;-66
2023/08/20 08:20:28;;;;;;;7.97;4.75;;;28.10;99.90;;;;;;4161311;28;20041;-66
2023/08/20 08:22:28;;;;;;;8.80;5.70;;;28.10;99.90;;;;;;4156676;28;20033;-66
2023/08/20 08:24:29;;;;;;;6.80;5.28;;;28.10;99.90;;;;;;4160585;28;20050;-66
2023/08/20 08:26:30;;;;;;;6.80;4.90;;;28.20;99.90;;;;;;4165024;28;20041;-66
2023/08/20 08:28:31;;;;;;;6.28;5.18;;;28.20;99.90;;;;;;4160224;28;20040;-67
2023/08/20 08:30:31;;;;;;;8.10;4.68;;;28.30;99.90;;;;;;4162878;28;20036;-66
2023/08/20 08:32:32;;;;;;;8.65;6.45;;;28.40;99.90;;;;;;4161772;28;20034;-66
2023/08/20 08:34:32;;;;;;;6.10;4.40;;;28.40;99.90;;;;;;4160060;28;20033;-66
2023/08/20 08:36:33;;;;;;;8.82;4.90;;;28.40;99.90;;;;;;4159935;28;20107;-66
2023/08/20 08:38:36;;;;;;;6.45;4.45;;;28.50;99.90;;;;;;4163042;28;20034;-66
2023/08/20 08:40:36;;;;;;;;;;;28.50;99.90;;;;;;4162676;28;20561;-66
2023/08/20 08:42:37;;;;;;;11.07;6.32;;;28.60;99.90;;;;;;4161215;28;19913;-66
2023/08/20 08:44:38;;;;;;;7.80;6.28;;;28.60;99.90;;;;;;4161398;28;20046;-67
2023/08/20 08:46:39;;;;;;;10.07;6.07;;;28.60;99.90;;;;;;4156617;28;20034;-66
2023/08/20 08:48:44;;;;;;;8.15;5.90;;;28.70;99.90;;;;;;4161545;28;20037;-75
2023/08/20 08:50:46;;;;;;;9.90;5.68;;;28.70;99.90;;;;;;4161032;28;20053;-61
2023/08/20 08:52:50;;;;;;;10.00;6.87;;;28.80;99.90;;;;;;4152132;28;20033;-60
2023/08/20 08:54:51;;;;;;;8.30;5.90;;;28.70;99.90;;;;;;4157059;28;20776;-61
2023/08/20 08:56:52;;;;;;;8.50;5.72;;;28.70;99.90;;;;;;4160068;28;20108;-61
2023/08/20 08:58:54;;;;;;;6.88;4.95;;;28.80;99.90;;;;;;4162169;28;20045;-61
2023/08/20 09:00:55;;;;;;;8.87;5.37;;;28.80;99.90;;;;;;4137484;28;20025;-61
2023/08/20 09:02:55;;;;;;;7.07;5.30;;;28.90;99.90;;;;;;4161995;28;20073;-61
2023/08/20 09:04:56;;;;;;;7.45;4.90;;;29.00;99.90;;;;;;4164175;28;20033;-61
2023/08/20 09:06:57;;;;;;;7.50;5.43;;;29.00;99.90;;;;;;4164710;28;20033;-61
2023/08/20 09:09:06;;;;;;;5.57;4.68;;;29.10;99.90;;;;;;4160892;28;20175;-60
2023/08/20 09:11:06;;;;;;;6.38;4.35;;;29.10;99.90;;;;;;4117315;28;20128;-60
2023/08/20 09:13:08;;;;;;;6.45;4.90;;;29.10;99.90;;;;;;4078200;28;20040;-61
2023/08/20 09:15:12;;;;;;;8.85;5.65;;;29.10;99.90;;;;;;4151791;28;21050;-61
2023/08/20 09:17:12;;;;;;;6.00;4.13;;;29.10;99.90;;;;;;4159273;28;20034;-61
2023/08/20 09:19:13;;;;;;;6.05;4.28;;;29.10;99.90;;;;;;4160428;28;20125;-61
2023/08/20 09:21:14;;;;;;;6.43;3.80;;;29.10;99.90;;;;;;4155238;28;20036;-61
2023/08/20 09:23:15;;;;;;;8.75;4.70;;;29.10;99.90;;;;;;4159680;28;20092;-61
2023/08/20 09:25:17;;;;;;;7.18;5.18;;;29.10;99.90;;;;;;4171175;28;20037;-61
2023/08/20 09:27:17;;;;;;;8.98;4.93;;;29.10;99.90;;;;;;4158397;28;20038;-60
2023/08/20 09:29:18;;;;;;;5.82;4.60;;;29.10;99.90;;;;;;4160213;28;20095;-60
2023/08/20 09:31:18;;;;;;;7.50;4.85;;;29.10;99.90;;;;;;4159587;28;20036;-61
2023/08/20 09:33:19;;;;;;;5.43;3.95;;;29.10;99.90;;;;;;4156772;28;20033;-63
2023/08/20 09:35:19;;;;;;;7.65;5.10;;;29.10;99.90;;;;;;4157460;28;20033;-61
2023/08/20 09:37:22;;;;;;;10.75;5.40;;;29.00;99.90;;;;;;4158749;28;20041;-60
2023/08/20 09:39:23;;;;;;;6.03;4.78;;;29.00;99.90;;;;;;4160899;28;20043;-60
2023/08/20 09:41:25;;;;;;;6.72;4.55;;;28.90;99.90;;;;;;4159255;28;20132;-60
2023/08/20 09:43:30;;;;;;;5.85;4.10;;;28.90;99.90;;;;;;4173377;28;20032;-65
2023/08/20 09:45:31;;;;;;;5.30;4.07;;;29.00;99.90;;;;;;4160952;28;20037;-61
2023/08/20 09:47:35;;;;;;;5.90;3.88;;;29.10;99.90;;;;;;4156816;28;20564;-60
2023/08/20 09:49:44;;;;;;;7.00;4.45;;;29.10;99.90;;;;;;4159457;28;20481;-61
2023/08/20 09:51:50;;;;;;;8.75;5.30;;;29.10;99.90;;;;;;4159596;28;20033;-60
2023/08/20 09:54:16;;;;;;;7.38;4.20;;;29.20;99.90;;;;;;4159693;28;20045;-61
2023/08/20 09:56:26;;;;;;;6.60;3.78;;;29.20;99.90;;;;;;4159756;28;20029;-60
2023/08/20 09:58:28;;;;;;;7.28;4.25;;;29.30;99.90;;;;;;4155675;28;20088;-66
2023/08/20 10:00:30;;;;;;;5.20;4.03;;;29.20;99.90;;;;;;4158864;28;20025;-68
2023/08/20 10:02:31;;;;;;;7.95;5.57;;;29.20;99.90;;;;;;4158935;28;20030;-69
2023/08/20 10:04:32;;;;;;;7.28;4.70;;;29.20;99.90;;;;;;4159663;28;20116;-69
2023/08/20 10:06:33;;;;;;;5.40;3.72;;;29.20;99.90;;;;;;4158152;28;20021;-69
2023/08/20 10:08:34;;;;;;;4.63;3.30;;;29.30;99.90;;;;;;4160143;28;20038;-69
2023/08/20 10:10:35;;;;;;;5.97;4.10;;;29.30;99.90;;;;;;4157875;28;20034;-69
2023/08/20 10:12:38;;;;;;;6.38;3.90;;;29.30;99.90;;;;;;4160808;28;20041;-68
2023/08/20 10:14:40;;;;;;;5.43;4.05;;;29.30;99.90;;;;;;4159863;28;20041;-69
2023/08/20 10:16:40;;;;;;;6.70;4.75;;;29.30;99.90;;;;;;4157770;28;20536;-69
2023/08/20 10:18:41;;;;;;;6.03;4.72;;;29.30;99.90;;;;;;4157554;28;20034;-69
2023/08/20 10:20:42;;;;;;;6.05;4.00;;;29.30;99.90;;;;;;4157471;28;20033;-69
2023/08/20 10:22:44;;;;;;;7.43;4.40;;;29.30;99.90;;;;;;4156333;28;20034;-69
2023/08/20 10:24:50;;;;;;;7.22;4.82;;;29.40;99.90;;;;;;4159934;28;20393;-69
2023/08/20 10:27:08;;;;;;;8.20;5.00;;;29.30;99.90;;;;;;4156049;28;20049;-68
2023/08/20 10:29:48;;;;;;;8.55;4.75;;;29.30;99.90;;;;;;4159981;28;20036;-70
2023/08/20 10:31:49;;;;;;;6.28;3.75;;;29.20;99.90;;;;;;4088890;28;20095;-69